sensor_id;sensor_type;location;lat;lon;timestamp;pressure;altitude;pressure_sealevel;temperature
76476;BMP280;65308;50.078;14.854;2023-11-19T00:02:25;99472.31;;;6.50
76476;BMP280;65308;50.078;14.854;2023-11-19T00:04:52;99461.88;;;6.62
76476;BMP280;65308;50.078;14.854;2023-11-19T00:07:23;99460.97;;;6.46
76476;BMP280;65308;50.078;14.854;2023-11-19T00:09:50;99448.69;;;6.25
76476;BMP280;65308;50.078;14.854;2023-11-19T00:12:16;99438.56;;;6.16
76476;BMP280;65308;50.078;14.854;2023-11-19T00:14:45;99425.19;;;6.20
76476;BMP280;65308;50.078;14.854;2023-11-19T00:17:11;99405.59;;;6.10
76476;BMP280;65308;50.078;14.854;2023-11-19T00:19:38;99409.50;;;6.02
76476;BMP280;65308;50.078;14.854;2023-11-19T00:22:04;99389.34;;;6.04
76476;BMP280;65308;50.078;14.854;2023-11-19T00:24:36;99388.44;;;6.14
76476;BMP280;65308;50.078;14.854;2023-11-19T00:27:03;99390.13;;;6.01
76476;BMP280;65308;50.078;14.854;2023-11-19T00:29:29;99385.28;;;5.92
76476;BMP280;65308;50.078;14.854;2023-11-19T00:32:05;99380.72;;;5.93
76476;BMP280;65308;50.078;14.854;2023-11-19T00:34:32;99372.47;;;5.87
76476;BMP280;65308;50.078;14.854;2023-11-19T00:37:02;99374.97;;;5.98
76476;BMP280;65308;50.078;14.854;2023-11-19T00:39:29;99362.53;;;5.91
76476;BMP280;65308;50.078;14.854;2023-11-19T00:42:00;99349.84;;;5.76
76476;BMP280;65308;50.078;14.854;2023-11-19T00:44:30;99359.25;;;5.80
76476;BMP280;65308;50.078;14.854;2023-11-19T00:46:57;99346.66;;;5.88
76476;BMP280;65308;50.078;14.854;2023-11-19T00:49:27;99349.75;;;5.83
76476;BMP280;65308;50.078;14.854;2023-11-19T00:51:54;99343.63;;;5.86
76476;BMP280;65308;50.078;14.854;2023-11-19T00:54:21;99328.94;;;6.08
76476;BMP280;65308;50.078;14.854;2023-11-19T00:56:51;99317.63;;;5.70
76476;BMP280;65308;50.078;14.854;2023-11-19T00:59:19;99324.88;;;5.66
76476;BMP280;65308;50.078;14.854;2023-11-19T01:01:49;99332.06;;;5.69
76476;BMP280;65308;50.078;14.854;2023-11-19T01:04:17;99322.22;;;5.66
76476;BMP280;65308;50.078;14.854;2023-11-19T01:06:45;99318.50;;;5.60
76476;BMP280;65308;50.078;14.854;2023-11-19T01:09:11;99314.28;;;5.66
76476;BMP280;65308;50.078;14.854;2023-11-19T01:11:38;99319.06;;;5.78
76476;BMP280;65308;50.078;14.854;2023-11-19T01:14:05;99306.34;;;5.62
76476;BMP280;65308;50.078;14.854;2023-11-19T01:16:31;99296.53;;;5.56
76476;BMP280;65308;50.078;14.854;2023-11-19T01:18:58;99291.31;;;5.52
76476;BMP280;65308;50.078;14.854;2023-11-19T01:21:29;99293.88;;;5.56
76476;BMP280;65308;50.078;14.854;2023-11-19T01:23:58;99288.50;;;5.63
76476;BMP280;65308;50.078;14.854;2023-11-19T01:26:26;99282.63;;;5.79
76476;BMP280;65308;50.078;14.854;2023-11-19T01:28:52;99276.41;;;5.62
76476;BMP280;65308;50.078;14.854;2023-11-19T01:31:19;99271.16;;;5.55
76476;BMP280;65308;50.078;14.854;2023-11-19T01:33:47;99259.38;;;5.56
76476;BMP280;65308;50.078;14.854;2023-11-19T01:36:14;99259.00;;;5.57
76476;BMP280;65308;50.078;14.854;2023-11-19T01:38:40;99253.25;;;5.62
76476;BMP280;65308;50.078;14.854;2023-11-19T01:41:09;99262.38;;;5.58
76476;BMP280;65308;50.078;14.854;2023-11-19T01:43:35;99265.44;;;5.56
76476;BMP280;65308;50.078;14.854;2023-11-19T01:46:03;99248.22;;;5.68
76476;BMP280;65308;50.078;14.854;2023-11-19T01:48:31;99247.28;;;5.82
76476;BMP280;65308;50.078;14.854;2023-11-19T01:50:59;99232.78;;;5.90
76476;BMP280;65308;50.078;14.854;2023-11-19T01:53:27;99233.75;;;5.72
76476;BMP280;65308;50.078;14.854;2023-11-19T01:55:57;99235.25;;;5.74
76476;BMP280;65308;50.078;14.854;2023-11-19T01:58:25;99219.47;;;5.63
76476;BMP280;65308;50.078;14.854;2023-11-19T02:00:52;99211.00;;;5.44
76476;BMP280;65308;50.078;14.854;2023-11-19T02:03:19;99199.97;;;5.46
76476;BMP280;65308;50.078;14.854;2023-11-19T02:05:48;99206.59;;;5.61
76476;BMP280;65308;50.078;14.854;2023-11-19T02:08:16;99204.97;;;5.67
76476;BMP280;65308;50.078;14.854;2023-11-19T02:10:43;99193.75;;;5.56
76476;BMP280;65308;50.078;14.854;2023-11-19T02:13:09;99191.25;;;5.72
76476;BMP280;65308;50.078;14.854;2023-11-19T02:15:37;99187.19;;;5.91
76476;BMP280;65308;50.078;14.854;2023-11-19T02:18:20;99188.28;;;5.94
76476;BMP280;65308;50.078;14.854;2023-11-19T02:20:47;99185.00;;;5.59
76476;BMP280;65308;50.078;14.854;2023-11-19T02:23:13;99166.06;;;5.57
76476;BMP280;65308;50.078;14.854;2023-11-19T02:25:41;99163.75;;;5.59
76476;BMP280;65308;50.078;14.854;2023-11-19T02:28:09;99158.13;;;5.54
76476;BMP280;65308;50.078;14.854;2023-11-19T02:30:38;99154.28;;;5.31
76476;BMP280;65308;50.078;14.854;2023-11-19T02:33:04;99156.84;;;5.38
76476;BMP280;65308;50.078;14.854;2023-11-19T02:35:32;99155.38;;;5.34
76476;BMP280;65308;50.078;14.854;2023-11-19T02:38:00;99145.91;;;5.33
76476;BMP280;65308;50.078;14.854;2023-11-19T02:40:29;99152.16;;;5.19
76476;BMP280;65308;50.078;14.854;2023-11-19T02:42:55;99147.41;;;5.34
76476;BMP280;65308;50.078;14.854;2023-11-19T02:45:24;99143.44;;;5.18
76476;BMP280;65308;50.078;14.854;2023-11-19T02:47:51;99145.13;;;5.05
76476;BMP280;65308;50.078;14.854;2023-11-19T02:50:19;99137.53;;;5.03
76476;BMP280;65308;50.078;14.854;2023-11-19T02:52:51;99140.91;;;5.08
76476;BMP280;65308;50.078;14.854;2023-11-19T02:55:18;99133.25;;;5.13
76476;BMP280;65308;50.078;14.854;2023-11-19T02:57:56;99126.56;;;5.01
76476;BMP280;65308;50.078;14.854;2023-11-19T03:00:44;99127.69;;;5.04
76476;BMP280;65308;50.078;14.854;2023-11-19T03:03:17;99126.44;;;5.12
76476;BMP280;65308;50.078;14.854;2023-11-19T03:05:46;99119.59;;;5.15
76476;BMP280;65308;50.078;14.854;2023-11-19T03:08:14;99109.28;;;5.20
76476;BMP280;65308;50.078;14.854;2023-11-19T03:10:41;99110.81;;;5.21
76476;BMP280;65308;50.078;14.854;2023-11-19T03:13:11;99104.22;;;5.30
76476;BMP280;65308;50.078;14.854;2023-11-19T03:15:39;99102.00;;;5.28
76476;BMP280;65308;50.078;14.854;2023-11-19T03:18:10;99088.78;;;5.24
76476;BMP280;65308;50.078;14.854;2023-11-19T03:20:37;99093.94;;;5.35
76476;BMP280;65308;50.078;14.854;2023-11-19T03:23:06;99075.63;;;5.41
76476;BMP280;65308;50.078;14.854;2023-11-19T03:25:32;99070.13;;;5.55
76476;BMP280;65308;50.078;14.854;2023-11-19T03:28:03;99064.81;;;5.55
76476;BMP280;65308;50.078;14.854;2023-11-19T03:30:31;99055.25;;;5.61
76476;BMP280;65308;50.078;14.854;2023-11-19T03:32:58;99066.28;;;5.56
76476;BMP280;65308;50.078;14.854;2023-11-19T03:35:30;99060.94;;;5.60
76476;BMP280;65308;50.078;14.854;2023-11-19T03:37:58;99058.47;;;5.72
76476;BMP280;65308;50.078;14.854;2023-11-19T03:40:24;99046.19;;;5.82
76476;BMP280;65308;50.078;14.854;2023-11-19T03:42:51;99039.31;;;5.85
76476;BMP280;65308;50.078;14.854;2023-11-19T03:45:18;99034.03;;;5.81
76476;BMP280;65308;50.078;14.854;2023-11-19T03:47:46;99035.09;;;5.87
76476;BMP280;65308;50.078;14.854;2023-11-19T03:50:15;99029.81;;;5.84
76476;BMP280;65308;50.078;14.854;2023-11-19T03:52:43;99023.66;;;5.90
76476;BMP280;65308;50.078;14.854;2023-11-19T03:55:09;99011.97;;;5.84
76476;BMP280;65308;50.078;14.854;2023-11-19T03:57:38;99001.34;;;5.64
76476;BMP280;65308;50.078;14.854;2023-11-19T04:00:05;99001.19;;;5.71
76476;BMP280;65308;50.078;14.854;2023-11-19T04:02:35;98997.41;;;5.92
76476;BMP280;65308;50.078;14.854;2023-11-19T04:05:02;98980.16;;;5.81
76476;BMP280;65308;50.078;14.854;2023-11-19T04:07:29;98989.97;;;5.84
76476;BMP280;65308;50.078;14.854;2023-11-19T04:09:58;98991.56;;;5.58
76476;BMP280;65308;50.078;14.854;2023-11-19T04:12:24;98986.22;;;5.61
76476;BMP280;65308;50.078;14.854;2023-11-19T04:14:51;98977.75;;;5.66
76476;BMP280;65308;50.078;14.854;2023-11-19T04:17:18;98978.41;;;5.74
76476;BMP280;65308;50.078;14.854;2023-11-19T04:19:44;98970.56;;;5.87
76476;BMP280;65308;50.078;14.854;2023-11-19T04:22:11;98960.03;;;5.83
76476;BMP280;65308;50.078;14.854;2023-11-19T04:24:37;98960.09;;;6.00
76476;BMP280;65308;50.078;14.854;2023-11-19T04:27:07;98951.72;;;6.01
76476;BMP280;65308;50.078;14.854;2023-11-19T04:29:33;98942.59;;;6.02
76476;BMP280;65308;50.078;14.854;2023-11-19T04:32:00;98937.28;;;6.02
76476;BMP280;65308;50.078;14.854;2023-11-19T04:34:26;98940.84;;;6.15
76476;BMP280;65308;50.078;14.854;2023-11-19T04:36:53;98931.94;;;6.22
76476;BMP280;65308;50.078;14.854;2023-11-19T04:39:20;98925.47;;;6.23
76476;BMP280;65308;50.078;14.854;2023-11-19T04:41:48;98924.56;;;6.30
76476;BMP280;65308;50.078;14.854;2023-11-19T04:44:16;98913.22;;;6.46
76476;BMP280;65308;50.078;14.854;2023-11-19T04:46:46;98898.47;;;6.25
76476;BMP280;65308;50.078;14.854;2023-11-19T04:49:13;98900.47;;;6.21
76476;BMP280;65308;50.078;14.854;2023-11-19T04:51:46;98887.56;;;6.19
76476;BMP280;65308;50.078;14.854;2023-11-19T04:54:13;98907.28;;;6.22
76476;BMP280;65308;50.078;14.854;2023-11-19T04:56:40;98904.78;;;6.31
76476;BMP280;65308;50.078;14.854;2023-11-19T04:59:07;98897.09;;;6.36
76476;BMP280;65308;50.078;14.854;2023-11-19T05:01:35;98893.78;;;6.32
76476;BMP280;65308;50.078;14.854;2023-11-19T05:04:02;98879.97;;;6.01
76476;BMP280;65308;50.078;14.854;2023-11-19T05:06:32;98872.50;;;6.16
76476;BMP280;65308;50.078;14.854;2023-11-19T05:09:00;98878.03;;;6.22
76476;BMP280;65308;50.078;14.854;2023-11-19T05:11:29;98875.81;;;6.36
76476;BMP280;65308;50.078;14.854;2023-11-19T05:13:56;98858.13;;;6.30
76476;BMP280;65308;50.078;14.854;2023-11-19T05:16:23;98856.06;;;6.37
76476;BMP280;65308;50.078;14.854;2023-11-19T05:18:51;98859.88;;;6.36
76476;BMP280;65308;50.078;14.854;2023-11-19T05:21:41;98850.25;;;5.90
76476;BMP280;65308;50.078;14.854;2023-11-19T05:24:15;98839.63;;;5.90
76476;BMP280;65308;50.078;14.854;2023-11-19T05:26:57;98837.84;;;6.20
76476;BMP280;65308;50.078;14.854;2023-11-19T05:29:41;98836.28;;;6.38
76476;BMP280;65308;50.078;14.854;2023-11-19T05:32:14;98835.91;;;6.20
76476;BMP280;65308;50.078;14.854;2023-11-19T05:34:48;98835.78;;;6.27
76476;BMP280;65308;50.078;14.854;2023-11-19T05:37:17;98842.59;;;6.45
76476;BMP280;65308;50.078;14.854;2023-11-19T05:39:45;98840.03;;;6.57
76476;BMP280;65308;50.078;14.854;2023-11-19T05:42:11;98829.03;;;6.55
76476;BMP280;65308;50.078;14.854;2023-11-19T05:44:39;98817.34;;;6.69
76476;BMP280;65308;50.078;14.854;2023-11-19T05:47:06;98817.47;;;6.78
76476;BMP280;65308;50.078;14.854;2023-11-19T05:49:32;98813.19;;;6.68
76476;BMP280;65308;50.078;14.854;2023-11-19T05:52:00;98803.72;;;6.51
76476;BMP280;65308;50.078;14.854;2023-11-19T05:54:28;98795.50;;;6.61
76476;BMP280;65308;50.078;14.854;2023-11-19T05:56:58;98793.50;;;6.49
76476;BMP280;65308;50.078;14.854;2023-11-19T05:59:25;98782.44;;;6.51
76476;BMP280;65308;50.078;14.854;2023-11-19T06:01:52;98795.31;;;6.52
76476;BMP280;65308;50.078;14.854;2023-11-19T06:04:25;98787.19;;;6.43
76476;BMP280;65308;50.078;14.854;2023-11-19T06:07:07;98780.47;;;6.38
76476;BMP280;65308;50.078;14.854;2023-11-19T06:09:34;98792.34;;;6.50
76476;BMP280;65308;50.078;14.854;2023-11-19T06:12:01;98785.53;;;6.49
76476;BMP280;65308;50.078;14.854;2023-11-19T06:14:29;98781.72;;;6.50
76476;BMP280;65308;50.078;14.854;2023-11-19T06:16:55;98776.34;;;6.83
76476;BMP280;65308;50.078;14.854;2023-11-19T06:19:22;98776.94;;;6.58
76476;BMP280;65308;50.078;14.854;2023-11-19T06:21:50;98767.09;;;6.58
76476;BMP280;65308;50.078;14.854;2023-11-19T06:24:17;98758.84;;;6.53
76476;BMP280;65308;50.078;14.854;2023-11-19T06:26:44;98772.59;;;6.51
76476;BMP280;65308;50.078;14.854;2023-11-19T06:29:11;98768.56;;;6.43
76476;BMP280;65308;50.078;14.854;2023-11-19T06:31:40;98769.47;;;6.53
76476;BMP280;65308;50.078;14.854;2023-11-19T06:34:07;98764.44;;;6.88
76476;BMP280;65308;50.078;14.854;2023-11-19T06:36:34;98758.75;;;6.73
76476;BMP280;65308;50.078;14.854;2023-11-19T06:39:00;98752.41;;;6.83
76476;BMP280;65308;50.078;14.854;2023-11-19T06:41:30;98729.50;;;7.15
76476;BMP280;65308;50.078;14.854;2023-11-19T06:43:56;98736.41;;;7.12
76476;BMP280;65308;50.078;14.854;2023-11-19T06:46:23;98752.22;;;6.90
76476;BMP280;65308;50.078;14.854;2023-11-19T06:48:50;98764.56;;;6.97
76476;BMP280;65308;50.078;14.854;2023-11-19T06:51:16;98754.19;;;6.73
76476;BMP280;65308;50.078;14.854;2023-11-19T06:53:43;98754.38;;;6.79
76476;BMP280;65308;50.078;14.854;2023-11-19T06:56:18;98762.91;;;6.74
76476;BMP280;65308;50.078;14.854;2023-11-19T06:58:46;98763.53;;;6.94
76476;BMP280;65308;50.078;14.854;2023-11-19T07:01:14;98759.34;;;6.93
76476;BMP280;65308;50.078;14.854;2023-11-19T07:03:41;98753.03;;;6.87
76476;BMP280;65308;50.078;14.854;2023-11-19T07:06:11;98747.28;;;6.89
76476;BMP280;65308;50.078;14.854;2023-11-19T07:08:52;98762.66;;;6.97
76476;BMP280;65308;50.078;14.854;2023-11-19T07:11:19;98748.38;;;6.91
76476;BMP280;65308;50.078;14.854;2023-11-19T07:13:50;98748.59;;;6.97
76476;BMP280;65308;50.078;14.854;2023-11-19T07:16:22;98750.75;;;7.02
76476;BMP280;65308;50.078;14.854;2023-11-19T07:19:04;98750.75;;;7.02
76476;BMP280;65308;50.078;14.854;2023-11-19T07:21:50;98751.84;;;7.04
76476;BMP280;65308;50.078;14.854;2023-11-19T07:24:23;98749.31;;;7.14
76476;BMP280;65308;50.078;14.854;2023-11-19T07:27:05;98744.44;;;7.25
76476;BMP280;65308;50.078;14.854;2023-11-19T07:29:37;98751.25;;;7.26
76476;BMP280;65308;50.078;14.854;2023-11-19T07:32:05;98748.31;;;7.37
76476;BMP280;65308;50.078;14.854;2023-11-19T07:34:34;98746.69;;;7.52
76476;BMP280;65308;50.078;14.854;2023-11-19T07:37:00;98750.00;;;7.56
76476;BMP280;65308;50.078;14.854;2023-11-19T07:39:27;98740.84;;;7.57
76476;BMP280;65308;50.078;14.854;2023-11-19T07:41:54;98739.03;;;7.67
76476;BMP280;65308;50.078;14.854;2023-11-19T07:44:21;98742.88;;;7.66
76476;BMP280;65308;50.078;14.854;2023-11-19T07:46:49;98744.81;;;7.78
76476;BMP280;65308;50.078;14.854;2023-11-19T07:49:21;98741.50;;;7.87
76476;BMP280;65308;50.078;14.854;2023-11-19T07:51:56;98731.03;;;7.92
76476;BMP280;65308;50.078;14.854;2023-11-19T07:54:30;98739.03;;;8.05
76476;BMP280;65308;50.078;14.854;2023-11-19T07:57:25;98743.13;;;8.19
76476;BMP280;65308;50.078;14.854;2023-11-19T08:00:09;98749.75;;;8.27
76476;BMP280;65308;50.078;14.854;2023-11-19T08:02:49;98745.66;;;8.35
76476;BMP280;65308;50.078;14.854;2023-11-19T08:05:30;98749.91;;;8.45
76476;BMP280;65308;50.078;14.854;2023-11-19T08:07:57;98739.75;;;8.53
76476;BMP280;65308;50.078;14.854;2023-11-19T08:10:24;98747.59;;;8.57
76476;BMP280;65308;50.078;14.854;2023-11-19T08:12:52;98742.78;;;8.64
76476;BMP280;65308;50.078;14.854;2023-11-19T08:15:19;98739.91;;;8.72
76476;BMP280;65308;50.078;14.854;2023-11-19T08:17:58;98736.78;;;8.73
76476;BMP280;65308;50.078;14.854;2023-11-19T08:20:33;98731.97;;;8.81
76476;BMP280;65308;50.078;14.854;2023-11-19T08:23:02;98731.97;;;8.81
76476;BMP280;65308;50.078;14.854;2023-11-19T08:28:21;98730.50;;;8.89
76476;BMP280;65308;50.078;14.854;2023-11-19T08:30:56;98715.97;;;8.90
76476;BMP280;65308;50.078;14.854;2023-11-19T08:33:26;98711.50;;;8.87
76476;BMP280;65308;50.078;14.854;2023-11-19T08:35:53;98706.19;;;8.87
76476;BMP280;65308;50.078;14.854;2023-11-19T08:38:29;98722.38;;;8.92
76476;BMP280;65308;50.078;14.854;2023-11-19T08:40:56;98717.53;;;9.00
76476;BMP280;65308;50.078;14.854;2023-11-19T08:43:25;98712.19;;;9.00
76476;BMP280;65308;50.078;14.854;2023-11-19T08:45:52;98710.56;;;9.03
76476;BMP280;65308;50.078;14.854;2023-11-19T08:48:19;98703.72;;;9.02
76476;BMP280;65308;50.078;14.854;2023-11-19T08:50:53;98715.78;;;9.06
76476;BMP280;65308;50.078;14.854;2023-11-19T08:53:26;98713.28;;;9.12
76476;BMP280;65308;50.078;14.854;2023-11-19T08:55:53;98711.63;;;9.05
76476;BMP280;65308;50.078;14.854;2023-11-19T08:58:24;98700.78;;;9.09
76476;BMP280;65308;50.078;14.854;2023-11-19T09:01:15;98711.16;;;8.98
76476;BMP280;65308;50.078;14.854;2023-11-19T09:03:48;98708.59;;;8.94
76476;BMP280;65308;50.078;14.854;2023-11-19T09:06:32;98702.81;;;8.96
76476;BMP280;65308;50.078;14.854;2023-11-19T09:09:15;98695.09;;;8.88
76476;BMP280;65308;50.078;14.854;2023-11-19T09:11:49;98693.03;;;8.92
76476;BMP280;65308;50.078;14.854;2023-11-19T09:14:21;98692.19;;;9.05
76476;BMP280;65308;50.078;14.854;2023-11-19T09:16:53;98694.28;;;9.10
76476;BMP280;65308;50.078;14.854;2023-11-19T09:52:56;98649.78;;;10.67
76476;BMP280;65308;50.078;14.854;2023-11-19T09:55:24;98654.56;;;10.96
76476;BMP280;65308;50.078;14.854;2023-11-19T09:57:52;98655.34;;;10.87
76476;BMP280;65308;50.078;14.854;2023-11-19T10:00:25;98646.59;;;10.77
76476;BMP280;65308;50.078;14.854;2023-11-19T10:02:51;98643.03;;;10.80
76476;BMP280;65308;50.078;14.854;2023-11-19T10:05:22;98653.13;;;10.76
76476;BMP280;65308;50.078;14.854;2023-11-19T10:07:50;98659.75;;;10.99
76476;BMP280;65308;50.078;14.854;2023-11-19T10:10:18;98655.34;;;10.96
76476;BMP280;65308;50.078;14.854;2023-11-19T10:12:45;98660.91;;;11.07
76476;BMP280;65308;50.078;14.854;2023-11-19T10:15:19;98655.47;;;11.26
76476;BMP280;65308;50.078;14.854;2023-11-19T10:18:02;98647.63;;;11.22
76476;BMP280;65308;50.078;14.854;2023-11-19T10:20:35;98656.13;;;11.45
76476;BMP280;65308;50.078;14.854;2023-11-19T10:23:02;98655.25;;;11.63
76476;BMP280;65308;50.078;14.854;2023-11-19T10:25:30;98639.78;;;11.82
76476;BMP280;65308;50.078;14.854;2023-11-19T10:28:06;98631.03;;;12.11
76476;BMP280;65308;50.078;14.854;2023-11-19T10:30:47;98626.31;;;12.50
76476;BMP280;65308;50.078;14.854;2023-11-19T10:33:32;98623.25;;;13.07
76476;BMP280;65308;50.078;14.854;2023-11-19T10:39:06;98614.91;;;13.92
76476;BMP280;65308;50.078;14.854;2023-11-19T10:42:17;98602.47;;;14.27
76476;BMP280;65308;50.078;14.854;2023-11-19T10:44:58;98598.53;;;14.65
76476;BMP280;65308;50.078;14.854;2023-11-19T10:48:07;98590.09;;;14.83
76476;BMP280;65308;50.078;14.854;2023-11-19T10:51:05;98589.13;;;14.86
76476;BMP280;65308;50.078;14.854;2023-11-19T10:57:37;98599.91;;;14.92
76476;BMP280;65308;50.078;14.854;2023-11-19T11:00:13;98600.59;;;14.81
76476;BMP280;65308;50.078;14.854;2023-11-19T11:02:48;98595.03;;;14.53
76476;BMP280;65308;50.078;14.854;2023-11-19T11:05:22;98589.59;;;14.42
76476;BMP280;65308;50.078;14.854;2023-11-19T11:08:00;98597.59;;;14.31
76476;BMP280;65308;50.078;14.854;2023-11-19T11:10:32;98601.25;;;14.28
76476;BMP280;65308;50.078;14.854;2023-11-19T11:13:05;98600.63;;;14.12
76476;BMP280;65308;50.078;14.854;2023-11-19T11:15:47;98603.13;;;14.16
76476;BMP280;65308;50.078;14.854;2023-11-19T11:18:21;98598.13;;;14.35
76476;BMP280;65308;50.078;14.854;2023-11-19T11:21:33;98598.75;;;14.56
76476;BMP280;65308;50.078;14.854;2023-11-19T11:45:06;98574.38;;;15.47
76476;BMP280;65308;50.078;14.854;2023-11-19T11:48:08;98572.38;;;15.31
76476;BMP280;65308;50.078;14.854;2023-11-19T11:50:55;98583.66;;;15.40
76476;BMP280;65308;50.078;14.854;2023-11-19T11:53:47;98588.28;;;15.29
76476;BMP280;65308;50.078;14.854;2023-11-19T12:01:19;98595.78;;;15.02
76476;BMP280;65308;50.078;14.854;2023-11-19T12:03:50;98592.41;;;15.13
76476;BMP280;65308;50.078;14.854;2023-11-19T12:06:22;98588.25;;;15.06
76476;BMP280;65308;50.078;14.854;2023-11-19T12:08:59;98584.09;;;15.16
76476;BMP280;65308;50.078;14.854;2023-11-19T12:11:49;98569.66;;;15.19
76476;BMP280;65308;50.078;14.854;2023-11-19T12:17:47;98572.38;;;15.31
76476;BMP280;65308;50.078;14.854;2023-11-19T12:20:24;98565.47;;;15.24
76476;BMP280;65308;50.078;14.854;2023-11-19T12:22:53;98563.53;;;15.24
76476;BMP280;65308;50.078;14.854;2023-11-19T12:25:35;98562.94;;;14.98
76476;BMP280;65308;50.078;14.854;2023-11-19T12:28:02;98571.59;;;14.65
76476;BMP280;65308;50.078;14.854;2023-11-19T12:30:43;98569.81;;;14.45
76476;BMP280;65308;50.078;14.854;2023-11-19T12:33:28;98551.59;;;14.29
76476;BMP280;65308;50.078;14.854;2023-11-19T12:36:12;98550.78;;;14.17
76476;BMP280;65308;50.078;14.854;2023-11-19T12:38:45;98527.38;;;13.97
76476;BMP280;65308;50.078;14.854;2023-11-19T12:41:18;98539.63;;;13.72
76476;BMP280;65308;50.078;14.854;2023-11-19T12:43:48;98533.06;;;13.73
76476;BMP280;65308;50.078;14.854;2023-11-19T12:46:22;98531.97;;;13.65
76476;BMP280;65308;50.078;14.854;2023-11-19T12:48:52;98531.53;;;13.66
76476;BMP280;65308;50.078;14.854;2023-11-19T12:51:19;98523.91;;;13.65
76476;BMP280;65308;50.078;14.854;2023-11-19T12:53:50;98517.66;;;13.47
76476;BMP280;65308;50.078;14.854;2023-11-19T12:56:20;98528.28;;;13.57
76476;BMP280;65308;50.078;14.854;2023-11-19T12:58:47;98512.06;;;13.51
76476;BMP280;65308;50.078;14.854;2023-11-19T13:01:16;98516.25;;;13.52
76476;BMP280;65308;50.078;14.854;2023-11-19T13:03:44;98497.47;;;13.58
76476;BMP280;65308;50.078;14.854;2023-11-19T13:06:13;98498.81;;;13.73
76476;BMP280;65308;50.078;14.854;2023-11-19T13:08:42;98515.25;;;13.75
76476;BMP280;65308;50.078;14.854;2023-11-19T13:11:10;98514.16;;;13.67
76476;BMP280;65308;50.078;14.854;2023-11-19T13:13:57;98515.25;;;13.49
76476;BMP280;65308;50.078;14.854;2023-11-19T13:16:28;98511.75;;;13.23
76476;BMP280;65308;50.078;14.854;2023-11-19T13:18:58;98511.06;;;13.22
76476;BMP280;65308;50.078;14.854;2023-11-19T13:21:30;98500.09;;;13.26
76476;BMP280;65308;50.078;14.854;2023-11-19T13:24:00;98499.13;;;13.03
76476;BMP280;65308;50.078;14.854;2023-11-19T13:26:28;98496.38;;;12.97
76476;BMP280;65308;50.078;14.854;2023-11-19T13:28:55;98497.44;;;13.06
76476;BMP280;65308;50.078;14.854;2023-11-19T13:31:24;98498.94;;;13.07
76476;BMP280;65308;50.078;14.854;2023-11-19T13:33:53;98494.81;;;13.37
76476;BMP280;65308;50.078;14.854;2023-11-19T13:36:23;98483.34;;;13.37
76476;BMP280;65308;50.078;14.854;2023-11-19T13:38:52;98480.56;;;13.25
76476;BMP280;65308;50.078;14.854;2023-11-19T13:41:27;98488.50;;;13.14
76476;BMP280;65308;50.078;14.854;2023-11-19T13:43:54;98488.09;;;13.01
76476;BMP280;65308;50.078;14.854;2023-11-19T13:46:25;98489.88;;;12.84
76476;BMP280;65308;50.078;14.854;2023-11-19T13:48:52;98490.53;;;12.79
76476;BMP280;65308;50.078;14.854;2023-11-19T13:51:20;98489.31;;;12.80
76476;BMP280;65308;50.078;14.854;2023-11-19T13:53:47;98479.19;;;12.69
76476;BMP280;65308;50.078;14.854;2023-11-19T13:56:16;98482.31;;;12.67
76476;BMP280;65308;50.078;14.854;2023-11-19T13:58:43;98483.53;;;12.66
76476;BMP280;65308;50.078;14.854;2023-11-19T14:01:12;98482.75;;;12.60
76476;BMP280;65308;50.078;14.854;2023-11-19T14:03:40;98476.28;;;12.52
76476;BMP280;65308;50.078;14.854;2023-11-19T14:06:22;98465.03;;;12.33
76476;BMP280;65308;50.078;14.854;2023-11-19T14:09:09;98473.09;;;12.33
76476;BMP280;65308;50.078;14.854;2023-11-19T14:11:53;98472.28;;;12.27
76476;BMP280;65308;50.078;14.854;2023-11-19T14:14:22;98471.66;;;12.17
76476;BMP280;65308;50.078;14.854;2023-11-19T14:16:52;98479.72;;;12.17
76476;BMP280;65308;50.078;14.854;2023-11-19T14:19:19;98471.38;;;12.15
76476;BMP280;65308;50.078;14.854;2023-11-19T14:21:46;98485.44;;;12.10
76476;BMP280;65308;50.078;14.854;2023-11-19T14:24:14;98485.56;;;12.01
76476;BMP280;65308;50.078;14.854;2023-11-19T14:26:45;98492.22;;;12.06
76476;BMP280;65308;50.078;14.854;2023-11-19T14:29:21;98486.75;;;12.15
76476;BMP280;65308;50.078;14.854;2023-11-19T14:31:51;98495.91;;;12.08
76476;BMP280;65308;50.078;14.854;2023-11-19T14:34:20;98492.22;;;12.06
76476;BMP280;65308;50.078;14.854;2023-11-19T14:36:48;98491.47;;;12.05
76476;BMP280;65308;50.078;14.854;2023-11-19T14:39:15;98481.19;;;12.03
76476;BMP280;65308;50.078;14.854;2023-11-19T14:41:49;98482.41;;;12.02
76476;BMP280;65308;50.078;14.854;2023-11-19T14:44:24;98481.41;;;12.15
76476;BMP280;65308;50.078;14.854;2023-11-19T14:46:51;98492.19;;;12.20
76476;BMP280;65308;50.078;14.854;2023-11-19T14:49:21;98488.88;;;12.11
76476;BMP280;65308;50.078;14.854;2023-11-19T14:51:52;98487.59;;;12.06
76476;BMP280;65308;50.078;14.854;2023-11-19T14:54:20;98484.16;;;12.06
76476;BMP280;65308;50.078;14.854;2023-11-19T14:56:52;98476.59;;;11.89
76476;BMP280;65308;50.078;14.854;2023-11-19T14:59:38;98489.06;;;11.77
76476;BMP280;65308;50.078;14.854;2023-11-19T15:02:12;98484.28;;;11.82
76476;BMP280;65308;50.078;14.854;2023-11-19T15:04:44;98482.44;;;11.73
76476;BMP280;65308;50.078;14.854;2023-11-19T15:07:26;98482.44;;;11.73
76476;BMP280;65308;50.078;14.854;2023-11-19T15:09:54;98485.91;;;11.64
76476;BMP280;65308;50.078;14.854;2023-11-19T15:12:30;98494.03;;;11.55
76476;BMP280;65308;50.078;14.854;2023-11-19T15:15:03;98497.38;;;11.50
76476;BMP280;65308;50.078;14.854;2023-11-19T15:17:37;98505.03;;;11.42
76476;BMP280;65308;50.078;14.854;2023-11-19T15:20:14;98566.88;;;11.39
76476;BMP280;65308;50.078;14.854;2023-11-19T15:22:57;98554.28;;;11.45
76476;BMP280;65308;50.078;14.854;2023-11-19T15:25:29;98558.13;;;11.29
76476;BMP280;65308;50.078;14.854;2023-11-19T15:27:59;98569.41;;;11.33
76476;BMP280;65308;50.078;14.854;2023-11-19T15:30:29;98571.47;;;11.38
76476;BMP280;65308;50.078;14.854;2023-11-19T15:32:57;98564.00;;;11.18
76476;BMP280;65308;50.078;14.854;2023-11-19T15:35:28;98576.22;;;10.86
76476;BMP280;65308;50.078;14.854;2023-11-19T15:37:55;98565.75;;;10.64
76476;BMP280;65308;50.078;14.854;2023-11-19T15:40:24;98568.31;;;10.68